Time;durP1;ratioP1;P1;durP2;ratioP2;P2;SDS_P1;SDS_P2;PMS_P1;PMS_P2;Temp;Humidity;BMP_temperature;BMP_pressure;BME280_temperature;BME280_humidity;BME280_pressure;Samples;Min_cycle;Max_cycle;Signal;HPM_P1;HPM_P2
2022/01/05 00:00:38;;;;;;;42.03;27.67;;;;;;;12.44;71.06;100073.41;5031958;28;20036;-75
2022/01/05 00:03:04;;;;;;;52.42;29.83;;;;;;;12.36;71.70;100065.19;5031966;28;20028;-73
2022/01/05 00:05:31;;;;;;;53.38;30.42;;;;;;;12.26;71.93;100049.06;5033386;28;20146;-74
2022/01/05 00:07:58;;;;;;;49.70;31.25;;;;;;;12.31;72.35;100056.72;5033354;28;20025;-75
2022/01/05 00:10:24;;;;;;;49.40;30.50;;;;;;;12.42;72.51;100084.34;5032817;28;20033;-74
2022/01/05 00:12:50;;;;;;;64.75;37.13;;;;;;;12.31;72.25;100072.91;5015166;28;20025;-74
2022/01/05 00:15:16;;;;;;;44.85;28.95;;;;;;;12.37;72.71;100096.56;5033010;28;20077;-75
2022/01/05 00:17:41;;;;;;;106.10;52.22;;;;;;;12.36;72.43;100082.22;5015593;28;20074;-75
2022/01/05 00:20:09;;;;;;;54.97;33.22;;;;;;;12.39;72.95;100087.34;5033345;28;20116;-73
2022/01/05 00:22:35;;;;;;;50.08;32.80;;;;;;;12.42;72.38;100088.88;5032473;28;20478;-73
2022/01/05 00:25:01;;;;;;;55.45;37.35;;;;;;;12.37;72.32;100075.00;5031323;28;20065;-73
2022/01/05 00:27:26;;;;;;;88.15;47.72;;;;;;;12.41;72.40;100079.09;5032821;28;20037;-74
2022/01/05 00:29:52;;;;;;;50.35;32.58;;;;;;;12.47;72.26;100090.16;5033055;28;20036;-74
2022/01/05 00:32:17;;;;;;;56.35;35.45;;;;;;;12.50;72.05;100076.38;5015534;28;20040;-75
2022/01/05 00:34:43;;;;;;;45.80;30.70;;;;;;;12.54;71.86;100090.38;5015087;28;20052;-74
2022/01/05 00:37:10;;;;;;;43.25;30.20;;;;;;;12.45;72.37;100064.31;5032996;28;20510;-74
2022/01/05 00:39:37;;;;;;;44.80;26.42;;;;;;;12.49;72.45;100065.72;5032815;28;20035;-72
2022/01/05 00:42:03;;;;;;;52.22;33.63;;;;;;;12.43;72.26;100067.16;5032941;28;20021;-74
2022/01/05 00:44:28;;;;;;;71.60;45.30;;;;;;;12.45;72.30;100062.47;5033297;28;20390;-74
2022/01/05 00:46:55;;;;;;;41.05;27.95;;;;;;;12.45;72.39;100072.38;5032726;28;20040;-74
2022/01/05 00:49:21;;;;;;;42.20;26.85;;;;;;;12.43;72.38;100067.16;5033007;28;20424;-73
2022/01/05 00:51:47;;;;;;;59.05;34.08;;;;;;;12.47;72.50;100075.81;5032749;28;20060;-74
2022/01/05 00:54:12;;;;;;;39.03;26.48;;;;;;;12.43;72.62;100082.50;5032353;28;20533;-74
2022/01/05 00:56:38;;;;;;;49.70;32.17;;;;;;;12.47;72.49;100089.28;5032498;28;20036;-74
2022/01/05 00:59:03;;;;;;;46.65;28.38;;;;;;;12.45;72.70;100077.78;5032315;28;20036;-74
2022/01/05 01:01:29;;;;;;;49.80;33.80;;;;;;;12.48;72.46;100088.28;5032228;28;20041;-74
2022/01/05 01:03:54;;;;;;;48.80;31.02;;;;;;;12.46;71.99;100071.41;5032735;28;20040;-74
2022/01/05 01:06:20;;;;;;;48.25;29.33;;;;;;;12.49;72.62;100079.19;5014682;28;20594;-74
2022/01/05 01:08:45;;;;;;;63.88;37.38;;;;;;;12.46;72.31;100063.31;5014381;28;20048;-74
2022/01/05 01:11:11;;;;;;;55.67;36.35;;;;;;;12.45;72.19;100054.38;5014401;28;20447;-73
2022/01/05 01:13:36;;;;;;;51.28;31.60;;;;;;;12.47;72.40;100062.31;5027232;28;20054;-73
2022/01/05 01:16:02;;;;;;;95.82;55.88;;;;;;;12.44;72.18;100062.63;4994650;28;20029;-73
2022/01/05 01:18:28;;;;;;;40.45;29.65;;;;;;;12.39;72.83;100060.38;5012372;28;20036;-74
2022/01/05 01:20:53;;;;;;;75.15;48.08;;;;;;;12.33;72.24;100041.22;4995152;28;20033;-73
2022/01/05 01:23:22;;;;;;;78.63;49.42;;;;;;;12.35;73.03;100041.94;5012314;28;20021;-74
2022/01/05 01:25:49;;;;;;;75.90;50.67;;;;;;;12.32;72.58;100042.25;4994483;28;20036;-74
2022/01/05 01:28:15;;;;;;;136.35;81.88;;;;;;;12.27;72.76;100031.06;4994632;28;20116;-73
2022/01/05 01:30:42;;;;;;;56.17;36.30;;;;;;;12.27;73.14;100033.75;4994722;28;20095;-73
2022/01/05 01:33:07;;;;;;;55.05;36.75;;;;;;;12.22;72.90;100030.66;4994527;28;20026;-73
2022/01/05 01:35:33;;;;;;;44.50;30.77;;;;;;;12.21;72.90;100035.19;4994511;28;20037;-74
2022/01/05 01:37:59;;;;;;;46.35;30.80;;;;;;;12.21;73.27;100028.97;5012249;28;20025;-74
2022/01/05 01:40:24;;;;;;;39.28;26.98;;;;;;;12.14;73.57;100027.88;5012100;28;20372;-74
2022/01/05 01:42:50;;;;;;;47.60;33.35;;;;;;;12.11;73.24;100030.88;5012224;28;20057;-74
2022/01/05 01:45:16;;;;;;;33.88;26.10;;;;;;;12.15;73.42;100030.41;4994589;28;20037;-74
2022/01/05 01:47:42;;;;;;;46.38;33.20;;;;;;;12.19;73.26;100022.88;5012294;28;20041;-74
2022/01/05 01:50:09;;;;;;;35.58;26.00;;;;;;;12.16;73.46;100028.56;4994650;28;20403;-75
2022/01/05 01:52:35;;;;;;;43.65;26.48;;;;;;;12.19;73.11;100022.88;4977900;28;20038;-74
2022/01/05 01:55:03;;;;;;;39.10;27.50;;;;;;;12.13;73.09;100010.00;5012002;28;20446;-73
2022/01/05 01:57:34;;;;;;;33.67;25.92;;;;;;;12.20;72.81;100009.22;5011280;28;20112;-73
2022/01/05 02:00:00;;;;;;;36.30;24.48;;;;;;;12.21;72.79;100012.78;5012261;28;20124;-74
2022/01/05 02:02:26;;;;;;;42.38;25.48;;;;;;;12.18;73.03;100011.25;5011563;28;20026;-74
2022/01/05 02:04:52;;;;;;;38.67;25.25;;;;;;;12.25;73.07;100028.53;5012133;28;20025;-73
2022/01/05 02:07:18;;;;;;;35.25;23.35;;;;;;;12.26;72.47;100021.28;5011619;28;20036;-73
2022/01/05 02:09:44;;;;;;;39.70;25.30;;;;;;;12.31;72.66;100018.97;5011534;28;20117;-73
2022/01/05 02:12:10;;;;;;;44.25;27.73;;;;;;;12.34;72.16;100024.06;4994181;28;20041;-74
2022/01/05 02:14:36;;;;;;;36.65;26.30;;;;;;;12.32;72.44;100015.28;5007379;28;20475;-73
2022/01/05 02:17:07;;;;;;;48.20;28.83;;;;;;;12.32;72.08;100021.50;5031837;28;20104;-74
2022/01/05 02:19:34;;;;;;;50.70;28.65;;;;;;;12.35;72.25;100020.38;5014114;28;20021;-75
2022/01/05 02:21:59;;;;;;;41.47;27.02;;;;;;;12.33;72.23;100016.97;5014144;28;20026;-74
2022/01/05 02:24:25;;;;;;;37.03;26.55;;;;;;;12.38;71.76;100025.47;5031839;28;20037;-73
2022/01/05 02:26:50;;;;;;;39.72;27.30;;;;;;;12.39;72.30;100029.84;5031592;28;20112;-75
2022/01/05 02:29:16;;;;;;;41.92;26.75;;;;;;;12.39;71.46;100017.22;5031163;28;20037;-73
2022/01/05 02:31:41;;;;;;;33.67;24.67;;;;;;;12.19;72.16;99996.78;5014014;28;20029;-75
2022/01/05 02:34:07;;;;;;;36.95;24.48;;;;;;;12.29;71.63;100012.91;5031321;28;20044;-74
2022/01/05 02:36:33;;;;;;;38.85;25.20;;;;;;;12.35;71.89;100020.38;5015020;28;20029;-74
2022/01/05 02:38:58;;;;;;;36.53;25.55;;;;;;;12.32;71.22;100009.91;5035443;28;20029;-74
2022/01/05 02:41:24;;;;;;;37.72;24.65;;;;;;;12.32;71.98;100009.91;5017254;28;20340;-74
2022/01/05 02:43:50;;;;;;;37.17;24.75;;;;;;;12.30;71.68;100017.28;5017234;28;20399;-74
2022/01/05 02:46:18;;;;;;;33.22;22.60;;;;;;;12.27;71.36;100023.81;5035120;28;20116;-74
2022/01/05 02:48:44;;;;;;;33.78;23.75;;;;;;;12.20;71.94;100021.88;5000751;28;20625;-73
2022/01/05 02:51:11;;;;;;;33.15;23.88;;;;;;;12.20;71.69;100027.28;5034379;28;20030;-74
2022/01/05 02:53:36;;;;;;;36.17;23.08;;;;;;;12.13;71.56;100020.78;5034584;28;20443;-73
2022/01/05 02:56:03;;;;;;;32.80;21.75;;;;;;;12.15;71.71;100024.16;5017182;28;20025;-73
2022/01/05 02:58:28;;;;;;;39.47;22.00;;;;;;;12.15;71.76;100025.00;5035055;28;20034;-73
2022/01/05 03:00:54;;;;;;;32.10;21.35;;;;;;;12.04;71.82;99989.34;5016901;28;20402;-74
2022/01/05 03:03:20;;;;;;;38.65;25.08;;;;;;;12.12;71.70;100008.28;5034477;28;20021;-74
2022/01/05 03:05:46;;;;;;;30.10;21.20;;;;;;;11.98;72.29;99999.72;5016681;28;20463;-74
2022/01/05 03:08:12;;;;;;;33.38;22.10;;;;;;;12.04;72.08;100021.69;5034712;28;20026;-73
2022/01/05 03:10:37;;;;;;;33.40;23.83;;;;;;;11.99;72.08;100022.09;5034983;28;20033;-74
2022/01/05 03:13:03;;;;;;;31.73;22.05;;;;;;;11.98;72.28;100032.06;5016579;28;20091;-73
2022/01/05 03:15:30;;;;;;;37.30;25.80;;;;;;;12.02;72.07;100020.97;5033608;28;20033;-74
2022/01/05 03:17:55;;;;;;;34.13;23.17;;;;;;;11.98;72.52;100021.28;5016364;28;20049;-74
2022/01/05 03:20:22;;;;;;;36.80;23.60;;;;;;;12.04;72.28;100021.69;5034476;28;20360;-74
2022/01/05 03:22:49;;;;;;;34.42;23.85;;;;;;;12.06;71.93;100011.59;5016845;28;20036;-72
2022/01/05 03:25:16;;;;;;;41.33;25.60;;;;;;;12.10;71.99;100011.16;5034465;28;20021;-73
2022/01/05 03:27:47;;;;;;;36.20;27.00;;;;;;;12.16;71.97;100025.88;5034475;28;20177;-73
2022/01/05 03:30:18;;;;;;;47.40;27.23;;;;;;;12.18;71.38;100018.47;5016529;28;20037;-73
2022/01/05 03:35:26;;;;;;;40.03;25.42;;;;;;;12.11;71.28;100023.59;5032866;28;20084;-74
2022/01/05 03:37:54;;;;;;;42.15;25.40;;;;;;;12.13;70.96;100023.47;5016745;28;20151;-74
2022/01/05 03:40:20;;;;;;;47.83;25.58;;;;;;;12.09;71.36;100012.13;5034290;28;20029;-74
2022/01/05 03:42:46;;;;;;;34.53;22.00;;;;;;;12.15;70.94;100011.53;5016162;28;20053;-74
2022/01/05 03:45:11;;;;;;;31.98;22.20;;;;;;;12.16;70.62;100015.94;5034295;28;20056;-74
2022/01/05 03:47:37;;;;;;;30.83;23.10;;;;;;;12.18;70.89;100008.53;5033226;28;20394;-73
2022/01/05 03:50:04;;;;;;;33.20;22.85;;;;;;;12.22;70.39;100019.88;5033967;28;20080;-74
2022/01/05 03:52:29;;;;;;;36.05;23.92;;;;;;;12.22;70.64;100014.50;5032238;28;20497;-73
2022/01/05 03:54:55;;;;;;;38.17;24.08;;;;;;;12.19;70.04;100012.94;5033698;28;20030;-74
2022/01/05 03:57:20;;;;;;;32.15;22.17;;;;;;;12.12;70.31;100016.38;5033440;28;20077;-74
2022/01/05 03:59:46;;;;;;;35.65;22.80;;;;;;;12.07;70.64;100016.00;5015645;28;20026;-73
2022/01/05 04:02:12;;;;;;;43.22;24.95;;;;;;;12.04;70.43;100018.97;5032183;28;20420;-74
2022/01/05 04:04:37;;;;;;;39.97;25.92;;;;;;;12.02;70.92;100019.09;5033905;28;20025;-74
2022/01/05 04:07:03;;;;;;;44.63;29.92;;;;;;;11.89;70.38;99992.53;5033715;28;20171;-73
2022/01/05 04:09:29;;;;;;;37.95;26.63;;;;;;;12.02;70.57;100020.97;5015934;28;20101;-74
2022/01/05 04:11:55;;;;;;;34.03;23.67;;;;;;;12.03;70.17;100026.22;5033710;28;20378;-74
2022/01/05 04:14:20;;;;;;;33.55;23.02;;;;;;;12.00;70.43;100019.28;5033100;28;20049;-74
2022/01/05 04:16:46;;;;;;;34.13;24.70;;;;;;;11.94;70.63;100022.56;5033258;28;20032;-73
2022/01/05 04:19:11;;;;;;;40.08;23.38;;;;;;;11.95;70.60;100018.88;5033164;28;20029;-73
2022/01/05 04:21:37;;;;;;;35.28;22.92;;;;;;;11.96;70.15;100025.09;5033244;28;20052;-74
2022/01/05 04:24:03;;;;;;;34.22;23.23;;;;;;;11.94;69.91;100021.72;5033456;28;20091;-74
2022/01/05 04:26:28;;;;;;;39.42;27.98;;;;;;;11.94;70.45;100022.56;5033342;28;20395;-74
2022/01/05 04:28:54;;;;;;;34.20;23.42;;;;;;;11.92;69.95;100034.50;5032776;28;20479;-75
2022/01/05 04:31:20;;;;;;;38.17;25.15;;;;;;;11.87;70.55;100025.97;5032756;28;20593;-74
2022/01/05 04:33:46;;;;;;;36.58;25.60;;;;;;;11.90;70.66;100036.47;4998779;28;20120;-74
2022/01/05 04:36:11;;;;;;;41.80;26.98;;;;;;;11.93;70.45;100045.09;5031616;28;20117;-75
2022/01/05 04:38:37;;;;;;;34.58;25.00;;;;;;;11.95;70.18;100051.22;5033206;28;20360;-75
2022/01/05 04:41:03;;;;;;;41.90;27.98;;;;;;;11.98;69.75;100056.31;5032793;28;20030;-74
2022/01/05 04:43:28;;;;;;;41.25;28.83;;;;;;;11.96;69.77;100058.28;5032781;28;20014;-73
2022/01/05 04:45:53;;;;;;;37.95;24.60;;;;;;;11.90;69.85;100053.50;5015120;28;20032;-73
2022/01/05 04:48:20;;;;;;;34.15;22.23;;;;;;;11.93;69.82;100052.34;5014901;28;20091;-73
2022/01/05 04:50:45;;;;;;;34.65;21.45;;;;;;;11.82;69.96;100050.69;5032879;28;20021;-73
2022/01/05 04:53:13;;;;;;;31.60;21.33;;;;;;;11.90;70.17;100058.03;5015099;28;20039;-72
2022/01/05 04:55:39;;;;;;;40.38;22.52;;;;;;;11.89;70.07;100051.81;5015124;28;20029;-74
2022/01/05 04:58:05;;;;;;;35.20;21.48;;;;;;;11.85;70.38;100054.94;5013990;28;20466;-74
2022/01/05 05:00:31;;;;;;;38.60;22.70;;;;;;;11.82;70.15;100057.91;5033574;28;20044;-75
2022/01/05 05:02:57;;;;;;;33.70;21.35;;;;;;;11.79;69.95;100045.59;5014099;28;20029;-74
2022/01/05 05:05:22;;;;;;;35.53;22.17;;;;;;;11.80;70.23;100052.66;5039478;28;20144;-74
2022/01/05 05:07:48;;;;;;;35.50;21.50;;;;;;;11.69;70.04;100044.72;5048840;28;20039;-77
2022/01/05 05:10:13;;;;;;;31.63;21.35;;;;;;;11.71;69.99;100047.34;5034074;28;20032;-76
2022/01/05 05:12:39;;;;;;;33.85;19.67;;;;;;;11.73;70.07;100048.88;5048954;28;20104;-76
2022/01/05 05:15:05;;;;;;;33.97;21.13;;;;;;;11.74;69.67;100036.25;5052045;28;20629;-75
2022/01/05 05:17:31;;;;;;;31.08;19.98;;;;;;;11.70;69.64;100033.00;5051878;28;20028;-74
2022/01/05 05:19:57;;;;;;;36.22;20.95;;;;;;;11.72;70.10;100030.16;5034793;28;20025;-75
2022/01/05 05:22:23;;;;;;;33.15;20.67;;;;;;;11.69;69.85;100025.88;5034524;28;20481;-74
2022/01/05 05:24:48;;;;;;;54.67;30.85;;;;;;;11.71;70.12;100028.47;5052767;28;20029;-75
2022/01/05 05:27:14;;;;;;;29.45;20.25;;;;;;;11.75;69.77;100025.31;5043439;28;20447;-74
2022/01/05 05:29:41;;;;;;;49.97;29.13;;;;;;;11.72;69.67;100031.00;5048473;28;20024;-74
2022/01/05 05:32:07;;;;;;;31.90;22.40;;;;;;;11.71;69.46;100037.38;5034218;28;20029;-75
2022/01/05 05:34:33;;;;;;;30.58;19.85;;;;;;;11.73;69.75;100032.72;5050261;28;20117;-74
2022/01/05 05:36:58;;;;;;;32.65;22.23;;;;;;;11.64;69.53;100025.47;5050523;28;20058;-74
2022/01/05 05:39:25;;;;;;;29.60;20.60;;;;;;;11.68;69.59;100037.63;5050725;28;20041;-75
2022/01/05 05:41:52;;;;;;;30.45;20.38;;;;;;;11.65;69.64;100026.34;5050505;28;20025;-74
2022/01/05 05:44:17;;;;;;;34.25;21.52;;;;;;;11.63;69.53;100029.16;5050572;28;20028;-75
2022/01/05 05:46:43;;;;;;;32.05;19.80;;;;;;;11.59;70.03;100027.75;5050640;28;20040;-75
2022/01/05 05:49:08;;;;;;;33.50;20.98;;;;;;;11.58;69.88;100031.44;5051033;28;20402;-75
2022/01/05 05:51:34;;;;;;;33.60;21.33;;;;;;;11.53;70.26;100017.56;5051898;28;20103;-76
2022/01/05 05:53:59;;;;;;;42.67;21.60;;;;;;;11.60;70.49;100023.22;5051436;28;20025;-75
2022/01/05 05:56:25;;;;;;;30.88;20.10;;;;;;;11.53;70.13;100009.47;5051747;28;20056;-76
2022/01/05 05:58:51;;;;;;;48.63;28.63;;;;;;;11.70;69.72;100026.75;5052052;28;20024;-75
2022/01/05 06:01:17;;;;;;;48.40;30.83;;;;;;;11.74;69.21;100020.09;5033660;28;20509;-74
2022/01/05 06:03:45;;;;;;;46.97;26.55;;;;;;;11.77;69.31;100015.25;5051959;28;20029;-74
2022/01/05 06:06:10;;;;;;;45.80;30.00;;;;;;;11.75;69.58;100017.25;5051834;28;20025;-75
2022/01/05 06:08:37;;;;;;;58.85;31.67;;;;;;;11.74;69.19;100015.53;5017071;28;20036;-75
2022/01/05 06:11:02;;;;;;;40.08;23.60;;;;;;;11.71;68.96;100002.34;5035738;28;20067;-76
2022/01/05 06:13:28;;;;;;;44.58;27.45;;;;;;;11.79;69.23;100009.72;5037521;28;20080;-76
2022/01/05 06:15:53;;;;;;;48.40;27.45;;;;;;;11.77;69.18;100015.25;5035211;28;20048;-74
2022/01/05 06:18:19;;;;;;;43.60;26.83;;;;;;;11.79;68.79;100013.28;5035073;28;20036;-74
2022/01/05 06:20:44;;;;;;;40.97;27.38;;;;;;;11.75;69.19;100013.69;5001165;28;20132;-76
2022/01/05 06:23:10;;;;;;;41.20;26.70;;;;;;;11.83;69.82;100022.72;5015497;28;20079;-74
2022/01/05 06:25:35;;;;;;;38.97;25.08;;;;;;;11.90;69.90;100031.94;5016907;28;20475;-76
2022/01/05 06:28:04;;;;;;;39.10;24.17;;;;;;;11.97;68.92;100024.09;5035339;28;20025;-74
2022/01/05 06:30:29;;;;;;;42.13;25.33;;;;;;;11.99;68.46;100022.97;5017262;28;20095;-74
2022/01/05 06:32:55;;;;;;;46.28;25.38;;;;;;;12.01;68.60;100028.22;5034188;28;20033;-77
2022/01/05 06:35:23;;;;;;;36.75;24.08;;;;;;;11.99;68.55;100022.97;5016518;28;20040;-76
2022/01/05 06:37:52;;;;;;;50.38;31.67;;;;;;;12.01;67.43;100022.81;5027364;28;20029;-73
2022/01/05 06:40:19;;;;;;;48.30;29.27;;;;;;;12.06;68.32;100035.84;5034485;28;20124;-77
2022/01/05 06:42:44;;;;;;;46.42;28.60;;;;;;;12.09;67.71;100035.53;5025524;28;20022;-74
2022/01/05 06:45:10;;;;;;;47.28;30.60;;;;;;;12.09;67.63;100036.41;4997266;28;20505;-73
2022/01/05 06:47:35;;;;;;;47.55;31.92;;;;;;;12.07;67.83;100045.63;5033696;28;20032;-73
2022/01/05 06:50:01;;;;;;;27.95;20.13;;;;;;;11.96;67.95;100023.25;5015887;28;20026;-74
2022/01/05 06:52:27;;;;;;;36.63;20.75;;;;;;;12.13;67.26;100047.72;5033722;28;20025;-74
2022/01/05 06:54:52;;;;;;;35.58;21.02;;;;;;;12.14;67.18;100057.53;5033034;28;20033;-74
2022/01/05 06:57:18;;;;;;;45.80;21.70;;;;;;;12.17;66.78;100047.28;5020593;28;20113;-74
2022/01/05 06:59:44;;;;;;;27.55;18.75;;;;;;;12.28;66.42;100054.31;5052147;28;20395;-73
2022/01/05 07:02:10;;;;;;;31.33;20.30;;;;;;;12.29;67.01;100064.13;5019891;28;20043;-73
2022/01/05 07:04:35;;;;;;;38.38;18.35;;;;;;;12.37;66.36;100064.22;5035581;28;20433;-74
2022/01/05 07:07:01;;;;;;;31.00;18.20;;;;;;;12.43;66.65;100055.53;5054133;28;20102;-75
2022/01/05 07:09:27;;;;;;;29.08;19.63;;;;;;;12.50;65.45;100057.47;5035942;28;20033;-72
2022/01/05 07:11:52;;;;;;;35.72;22.58;;;;;;;12.53;65.64;100056.31;5004951;28;20056;-74
2022/01/05 07:14:18;;;;;;;32.08;20.83;;;;;;;12.61;65.72;100060.94;4996465;28;20049;-74
2022/01/05 07:16:43;;;;;;;33.63;22.25;;;;;;;12.67;65.60;100054.94;4996823;28;20025;-74
2022/01/05 07:19:09;;;;;;;36.22;21.65;;;;;;;12.68;65.14;100070.13;5012475;28;20034;-73
2022/01/05 07:21:35;;;;;;;37.85;21.42;;;;;;;12.71;65.77;100075.22;5013199;28;20022;-75
2022/01/05 07:24:01;;;;;;;31.17;20.90;;;;;;;12.77;65.39;100069.22;5013828;28;20076;-74
2022/01/05 07:26:27;;;;;;;43.78;26.92;;;;;;;12.77;65.14;100064.69;5014517;28;20041;-74
2022/01/05 07:28:54;;;;;;;40.38;21.65;;;;;;;12.66;65.16;100051.38;4999243;28;20037;-75
2022/01/05 07:31:19;;;;;;;39.63;22.73;;;;;;;12.74;65.48;100070.38;5033811;28;20033;-75
2022/01/05 07:33:45;;;;;;;36.25;21.73;;;;;;;12.81;65.50;100078.72;5034109;28;20052;-76
2022/01/05 07:36:12;;;;;;;35.85;22.02;;;;;;;12.82;64.71;100073.16;5036755;28;20079;-75
2022/01/05 07:38:38;;;;;;;37.90;21.55;;;;;;;12.82;65.21;100064.22;5023941;28;20451;-75
2022/01/05 07:41:03;;;;;;;39.05;20.92;;;;;;;12.89;64.44;100068.00;5040431;28;20163;-75
2022/01/05 07:43:29;;;;;;;30.48;20.60;;;;;;;12.93;64.21;100059.47;5041707;28;20021;-74
2022/01/05 07:45:56;;;;;;;45.17;21.85;;;;;;;12.98;64.35;100067.94;5024457;28;20037;-73
2022/01/05 07:48:21;;;;;;;32.33;19.83;;;;;;;12.95;64.15;100057.44;5024568;28;20039;-74
2022/01/05 07:50:47;;;;;;;39.78;21.67;;;;;;;12.96;64.11;100053.75;5044256;28;20025;-76
2022/01/05 07:53:13;;;;;;;43.72;22.27;;;;;;;13.10;63.82;100063.19;5042220;28;20052;-74
2022/01/05 07:55:38;;;;;;;38.67;22.95;;;;;;;13.15;63.07;100063.56;5043153;28;20518;-75
2022/01/05 07:58:04;;;;;;;37.25;22.98;;;;;;;13.06;63.58;100059.91;5023508;28;20028;-75
2022/01/05 08:00:31;;;;;;;39.42;21.48;;;;;;;13.07;63.84;100053.50;5026118;28;20025;-75
2022/01/05 08:02:58;;;;;;;30.70;19.63;;;;;;;13.16;63.59;100053.59;5024744;28;20040;-75
2022/01/05 08:05:23;;;;;;;38.08;19.63;;;;;;;13.15;63.54;100058.16;5041377;28;20067;-74
2022/01/05 08:07:49;;;;;;;36.38;19.83;;;;;;;13.20;63.39;100044.22;5043034;28;20099;-74
2022/01/05 08:10:14;;;;;;;35.83;17.98;;;;;;;13.15;62.98;100020.34;5024122;28;20114;-75
2022/01/05 08:12:41;;;;;;;54.65;21.45;;;;;;;13.39;62.91;100049.44;5033962;28;20454;-74
2022/01/05 08:15:09;;;;;;;50.50;20.05;;;;;;;13.38;62.92;100037.78;5032384;28;20454;-73
2022/01/05 08:17:38;;;;;;;35.20;18.02;;;;;;;13.49;62.55;100052.88;5032550;28;20080;-74
2022/01/05 08:20:06;;;;;;;52.63;19.02;;;;;;;13.47;62.19;100041.38;5014769;28;20536;-74
2022/01/05 08:22:32;;;;;;;36.08;18.33;;;;;;;13.58;62.44;100060.88;5032459;28;20032;-74
2022/01/05 08:24:57;;;;;;;38.15;18.48;;;;;;;13.64;62.44;100060.25;5013732;28;20030;-74
2022/01/05 08:27:23;;;;;;;33.13;18.00;;;;;;;13.74;62.07;100048.50;4996891;28;20033;-74
2022/01/05 08:29:48;;;;;;;38.35;17.85;;;;;;;13.85;61.93;100045.53;5013976;28;20033;-74
2022/01/05 08:32:14;;;;;;;31.13;17.73;;;;;;;13.91;61.50;100056.53;5030982;28;20025;-74
2022/01/05 08:34:40;;;;;;;37.03;19.92;;;;;;;13.97;61.10;100039.69;5031277;28;20032;-74
2022/01/05 08:37:07;;;;;;;44.58;18.73;;;;;;;14.12;60.87;100046.19;5030979;28;20104;-74
2022/01/05 08:39:32;;;;;;;31.80;18.88;;;;;;;14.27;60.48;100057.25;5014425;28;20029;-74
2022/01/05 08:41:58;;;;;;;26.92;18.27;;;;;;;14.19;60.08;100039.09;5009679;28;20095;-75
2022/01/05 08:44:24;;;;;;;54.20;22.25;;;;;;;14.36;59.97;100041.94;5012291;28;20068;-73
2022/01/05 08:46:49;;;;;;;35.25;19.42;;;;;;;14.52;58.86;100050.09;4994531;28;20059;-74
2022/01/05 08:49:15;;;;;;;47.00;19.40;;;;;;;14.57;59.20;100045.91;4994389;28;20411;-74
2022/01/05 08:51:43;;;;;;;29.92;19.17;;;;;;;14.74;58.68;100044.06;5012252;28;20088;-74
2022/01/05 08:54:09;;;;;;;35.38;19.80;;;;;;;14.79;58.29;100041.72;4994948;28;20054;-74
2022/01/05 08:56:35;;;;;;;30.48;17.23;;;;;;;14.93;57.56;100041.06;4994864;28;20061;-74
2022/01/05 08:59:01;;;;;;;39.25;17.52;;;;;;;14.97;57.64;100037.00;4978809;28;20041;-73
2022/01/05 09:04:51;;;;;;;46.70;18.92;;;;;;;15.11;56.81;100025.50;5012911;28;20483;-74
2022/01/05 09:07:22;;;;;;;43.35;22.10;;;;;;;15.19;56.69;100016.56;5012979;28;20029;-74
2022/01/05 09:09:47;;;;;;;41.13;20.33;;;;;;;15.41;56.50;100034.00;4994824;28;20530;-75
2022/01/05 09:12:13;;;;;;;40.22;20.40;;;;;;;15.49;56.50;100029.44;4976272;28;20124;-74
2022/01/05 09:14:40;;;;;;;30.45;19.52;;;;;;;15.49;56.09;100025.88;5014028;28;20081;-74
2022/01/05 09:17:06;;;;;;;44.25;21.42;;;;;;;15.55;55.83;100019.78;5031476;28;20037;-73
2022/01/05 09:19:33;;;;;;;42.15;19.10;;;;;;;15.51;55.35;100010.28;5031675;28;20120;-74
2022/01/05 09:21:58;;;;;;;43.92;19.50;;;;;;;15.67;55.39;100015.69;5013906;28;20033;-76
2022/01/05 09:24:25;;;;;;;41.88;20.52;;;;;;;15.78;55.16;100023.44;5031121;28;20033;-74
2022/01/05 09:26:57;;;;;;;46.88;22.83;;;;;;;15.82;55.10;100019.38;5031600;28;20052;-74
2022/01/05 09:29:23;;;;;;;36.33;19.73;;;;;;;15.93;54.47;100013.56;5031636;28;20029;-73
2022/01/05 09:31:50;;;;;;;45.63;21.08;;;;;;;16.03;54.79;100005.25;5014313;28;20069;-74
2022/01/05 09:34:16;;;;;;;53.67;19.90;;;;;;;16.06;54.45;100003.03;5014505;28;20025;-75
2022/01/05 09:36:47;;;;;;;42.88;19.45;;;;;;;16.18;53.52;100015.19;5031711;28;20026;-74
2022/01/05 09:42:00;;;;;;;33.25;19.85;;;;;;;16.21;53.43;100000.44;5031906;28;20125;-73
2022/01/05 09:44:48;;;;;;;34.28;17.83;;;;;;;16.36;53.38;100001.38;5013151;28;20040;-74
2022/01/05 09:47:32;;;;;;;44.65;18.35;;;;;;;16.46;52.73;99990.28;4997330;28;20064;-74
2022/01/05 09:50:03;;;;;;;34.83;15.68;;;;;;;16.46;52.44;99991.16;5031657;28;20033;-73
2022/01/05 09:52:30;;;;;;;29.20;15.30;;;;;;;16.48;52.50;99989.09;5013745;28;20053;-73
2022/01/05 09:54:58;;;;;;;29.83;16.63;;;;;;;16.41;52.47;99980.00;5013504;28;20091;-74
2022/01/05 09:57:25;;;;;;;30.45;14.45;;;;;;;16.52;52.25;99993.16;5038300;28;20040;-74
2022/01/05 09:59:53;;;;;;;31.60;14.70;;;;;;;16.61;52.21;99983.13;5051378;28;20423;-76
2022/01/05 10:02:19;;;;;;;48.45;13.82;;;;;;;16.65;51.60;99984.47;5051733;28;20035;-75
2022/01/05 10:04:48;;;;;;;55.97;15.02;;;;;;;16.63;51.58;99953.94;5051432;28;20036;-75
2022/01/05 10:07:17;;;;;;;35.35;13.85;;;;;;;16.86;50.97;99965.63;5034184;28;20112;-77
2022/01/05 10:09:46;;;;;;;54.13;15.52;;;;;;;16.85;51.04;99956.63;5033236;28;20215;-75
2022/01/05 10:12:13;;;;;;;33.10;12.70;;;;;;;16.99;51.04;99963.16;5037232;28;20025;-75
2022/01/05 10:14:45;;;;;;;22.95;11.80;;;;;;;17.02;50.35;99965.53;5012849;28;20107;-75
2022/01/05 10:17:21;;;;;;;20.10;10.40;;;;;;;17.03;50.06;99955.50;5013608;28;20358;-76
2022/01/05 10:19:58;;;;;;;21.75;11.80;;;;;;;17.10;50.30;99954.56;5031363;28;20032;-75
2022/01/05 10:22:44;;;;;;;23.25;11.85;;;;;;;17.18;49.88;99959.97;5008777;28;20029;-75
2022/01/05 10:25:21;;;;;;;23.75;10.15;;;;;;;17.20;49.46;99957.88;5013452;28;20076;-75
2022/01/05 10:27:58;;;;;;;18.25;10.40;;;;;;;17.28;49.45;99949.66;5030848;28;20406;-74
2022/01/05 10:30:39;;;;;;;15.35;10.60;;;;;;;17.36;49.04;99955.03;5013660;28;20034;-75
2022/01/05 10:33:06;;;;;;;20.50;10.32;;;;;;;17.28;48.74;99944.22;5030998;28;20040;-75
2022/01/05 10:35:33;;;;;;;29.75;10.13;;;;;;;17.31;48.82;99954.72;5031012;28;20052;-75
2022/01/05 10:38:04;;;;;;;19.45;9.13;;;;;;;17.40;48.46;99961.75;5013863;28;20053;-76
2022/01/05 10:40:33;;;;;;;22.20;9.50;;;;;;;17.41;48.22;99960.75;5031194;28;20131;-75
2022/01/05 10:43:05;;;;;;;17.25;8.80;;;;;;;17.43;48.33;99953.25;5012935;28;20125;-75
2022/01/05 10:45:51;;;;;;;20.90;8.25;;;;;;;17.56;47.93;99946.34;5030958;28;20493;-74
2022/01/05 10:48:24;;;;;;;11.15;7.60;;;;;;;17.61;47.35;99938.50;5031016;28;20033;-75
2022/01/05 10:51:05;;;;;;;16.30;8.18;;;;;;;17.62;47.05;99929.28;5013520;28;20029;-75
2022/01/05 10:53:31;;;;;;;19.73;7.78;;;;;;;17.76;46.67;99936.63;5013184;28;20104;-75
2022/01/05 10:55:56;;;;;;;10.07;5.97;;;;;;;17.83;46.36;99942.97;5012831;28;20068;-75
2022/01/05 10:58:22;;;;;;;20.55;7.60;;;;;;;17.84;46.20;99928.34;5033080;28;20037;-75
2022/01/05 11:00:55;;;;;;;15.27;7.72;;;;;;;18.02;46.12;99931.53;5015937;28;20025;-75
2022/01/05 11:03:35;;;;;;;10.90;7.20;;;;;;;18.11;45.86;99924.94;5034656;28;20025;-75
2022/01/05 11:06:17;;;;;;;11.70;7.15;;;;;;;18.22;45.46;99921.75;5034034;28;20035;-75
2022/01/05 11:08:48;;;;;;;11.98;6.55;;;;;;;18.34;45.57;99920.22;5034612;28;20021;-76
2022/01/05 11:11:38;;;;;;;13.20;7.10;;;;;;;18.57;45.45;99924.66;5034232;28;20402;-75
2022/01/05 11:14:11;;;;;;;16.05;7.15;;;;;;;18.73;44.50;99927.16;5033595;28;20080;-75
2022/01/05 11:16:38;;;;;;;;;;;;;;;18.85;43.65;99922.88;5016622;28;20124;-75
2022/01/05 11:19:20;;;;;;;9.20;5.60;;;;;;;19.00;43.43;99924.47;5034016;28;19940;-76